createdAt,value
2022-12-15T00:00:54.232Z,82.38
2022-12-15T00:01:54.208Z,82.10
2022-12-15T00:02:54.277Z,81.91
2022-12-15T00:03:54.176Z,82.00
2022-12-15T00:04:54.138Z,81.62
2022-12-15T00:05:54.132Z,82.57
2022-12-15T00:06:54.173Z,82.28
2022-12-15T00:07:54.099Z,82.00
2022-12-15T00:08:54.087Z,82.19
2022-12-15T00:09:54.082Z,82.19
2022-12-15T00:10:54.079Z,82.38
2022-12-15T00:11:54.054Z,82.10
2022-12-15T00:12:54.034Z,81.91
2022-12-15T00:13:54.029Z,81.72
2022-12-15T00:14:54.014Z,82.10
2022-12-15T00:15:54.213Z,82.00
2022-12-15T00:16:53.982Z,81.81
2022-12-15T00:17:53.975Z,81.43
2022-12-15T00:18:53.951Z,81.72
2022-12-15T00:19:53.945Z,81.81
2022-12-15T00:20:53.930Z,81.91
2022-12-15T00:21:53.930Z,81.62
2022-12-15T00:22:53.901Z,81.81
2022-12-15T00:23:53.895Z,81.34
2022-12-15T00:24:53.880Z,81.24
2022-12-15T00:25:53.860Z,81.24
2022-12-15T00:26:53.852Z,81.15
2022-12-15T00:27:53.833Z,81.05
2022-12-15T00:28:53.817Z,80.96
2022-12-15T00:29:53.811Z,81.15
2022-12-15T00:30:58.860Z,81.24
2022-12-15T00:31:53.875Z,81.05
2022-12-15T00:32:53.770Z,80.96
2022-12-15T00:33:53.765Z,81.24
2022-12-15T00:34:53.753Z,81.15
2022-12-15T00:35:53.732Z,81.34
2022-12-15T00:36:53.710Z,81.53
2022-12-15T00:37:53.734Z,82.00
2022-12-15T00:38:53.698Z,81.81
2022-12-15T00:39:53.680Z,81.53
2022-12-15T00:40:53.664Z,81.72
2022-12-15T00:41:53.660Z,81.91
2022-12-15T00:42:53.640Z,81.53
2022-12-15T00:43:53.633Z,81.15
2022-12-15T00:44:53.613Z,80.96
2022-12-15T00:45:53.602Z,81.15
2022-12-15T00:46:53.642Z,80.87
2022-12-15T00:47:53.574Z,80.68
2022-12-15T00:48:53.551Z,80.87
2022-12-15T00:49:53.567Z,80.58
2022-12-15T00:50:53.541Z,80.68
2022-12-15T00:51:53.524Z,80.87
2022-12-15T00:52:53.496Z,81.34
2022-12-15T00:53:53.486Z,81.24
2022-12-15T00:54:53.477Z,81.05
2022-12-15T00:55:53.468Z,81.24
2022-12-15T00:56:53.459Z,81.24
2022-12-15T00:57:53.434Z,81.24
2022-12-15T00:58:53.425Z,81.05
2022-12-15T00:59:53.421Z,80.87
2022-12-15T01:00:53.406Z,81.34
2022-12-15T01:01:53.498Z,81.34
2022-12-15T01:02:53.589Z,81.34
2022-12-15T01:03:53.463Z,81.24
2022-12-15T01:04:53.348Z,81.43
2022-12-15T01:05:53.334Z,80.87
2022-12-15T01:06:53.326Z,81.15
2022-12-15T01:07:53.317Z,81.24
2022-12-15T01:08:53.305Z,80.96
2022-12-15T01:09:53.278Z,80.96
2022-12-15T01:10:53.278Z,81.05
2022-12-15T01:11:53.261Z,81.05
2022-12-15T01:12:53.242Z,80.96
2022-12-15T01:13:53.225Z,80.96
2022-12-15T01:14:53.208Z,81.15
2022-12-15T01:15:53.277Z,81.34
2022-12-15T01:16:53.185Z,81.34
2022-12-15T01:17:53.176Z,81.91
2022-12-15T01:18:53.158Z,81.72
2022-12-15T01:19:53.177Z,81.72
2022-12-15T01:20:53.135Z,81.43
2022-12-15T01:21:53.127Z,82.10
2022-12-15T01:22:53.121Z,81.72
2022-12-15T01:23:53.098Z,81.91
2022-12-15T01:24:53.098Z,82.00
2022-12-15T01:25:53.059Z,82.10
2022-12-15T01:26:53.053Z,82.10
2022-12-15T01:27:53.045Z,81.91
2022-12-15T01:28:53.011Z,82.00
2022-12-15T01:29:53.003Z,82.47
2022-12-15T01:30:53.007Z,81.91
2022-12-15T01:31:53.080Z,81.91
2022-12-15T01:32:52.964Z,81.34
2022-12-15T01:33:52.950Z,81.62
2022-12-15T01:34:52.937Z,81.72
2022-12-15T01:35:52.927Z,81.72
2022-12-15T01:36:52.921Z,81.53
2022-12-15T01:37:52.909Z,81.62
2022-12-15T01:38:54.500Z,81.72
2022-12-15T01:39:52.949Z,81.91
2022-12-15T01:40:52.859Z,81.72
2022-12-15T01:41:52.873Z,81.34
2022-12-15T01:42:52.831Z,81.43
2022-12-15T01:43:52.828Z,81.91
2022-12-15T01:44:52.804Z,81.91
2022-12-15T01:45:52.793Z,81.81
2022-12-15T01:46:52.877Z,81.91
2022-12-15T01:47:52.775Z,81.72
2022-12-15T01:48:52.803Z,81.62
2022-12-15T01:49:52.742Z,81.62
2022-12-15T01:50:52.738Z,81.62
2022-12-15T01:51:52.725Z,81.91
2022-12-15T01:52:52.714Z,81.72
2022-12-15T01:53:52.689Z,81.72
2022-12-15T01:54:52.686Z,81.43
2022-12-15T01:55:52.655Z,81.91
2022-12-15T01:56:52.642Z,82.10
2022-12-15T01:57:52.648Z,81.91
2022-12-15T01:58:52.619Z,81.91
2022-12-15T01:59:52.610Z,82.00
2022-12-15T02:00:52.648Z,81.81
2022-12-15T02:01:52.691Z,82.38
2022-12-15T02:02:52.667Z,82.10
2022-12-15T02:03:52.581Z,82.28
2022-12-15T02:04:52.535Z,81.72
2022-12-15T02:05:52.535Z,82.00
2022-12-15T02:06:52.522Z,82.19
2022-12-15T02:07:52.512Z,82.28
2022-12-15T02:08:52.491Z,82.10
2022-12-15T02:09:52.473Z,82.28
2022-12-15T02:10:52.450Z,82.00
2022-12-15T02:11:52.467Z,81.91
2022-12-15T02:12:52.461Z,82.00
2022-12-15T02:13:52.452Z,82.00
2022-12-15T02:14:52.417Z,82.10
2022-12-15T02:15:52.487Z,82.00
2022-12-15T02:16:52.377Z,81.72
2022-12-15T02:17:52.368Z,81.72
2022-12-15T02:18:52.377Z,81.62
2022-12-15T02:19:52.348Z,81.91
2022-12-15T02:20:52.317Z,81.72
2022-12-15T02:21:52.374Z,81.34
2022-12-15T02:22:52.294Z,80.87
2022-12-15T02:23:52.329Z,81.43
2022-12-15T02:24:52.265Z,81.24
2022-12-15T02:25:52.263Z,81.43
2022-12-15T02:26:52.245Z,81.91
2022-12-15T02:27:52.233Z,81.81
2022-12-15T02:28:52.212Z,81.43
2022-12-15T02:29:52.207Z,81.72
2022-12-15T02:30:52.188Z,81.72
2022-12-15T02:31:52.321Z,81.62
2022-12-15T02:32:52.171Z,81.91
2022-12-15T02:33:52.144Z,81.62
2022-12-15T02:34:52.161Z,81.62
2022-12-15T02:35:52.114Z,81.72
2022-12-15T02:36:52.101Z,81.91
2022-12-15T02:37:52.096Z,81.81
2022-12-15T02:38:52.077Z,81.81
2022-12-15T02:39:52.103Z,81.91
2022-12-15T02:40:52.055Z,81.15
2022-12-15T02:41:52.046Z,81.34
2022-12-15T02:42:52.039Z,81.34
2022-12-15T02:43:52.016Z,81.24
2022-12-15T02:44:51.997Z,81.43
2022-12-15T02:45:52.034Z,81.24
2022-12-15T02:46:51.968Z,81.43
2022-12-15T02:47:51.974Z,81.24
2022-12-15T02:48:51.964Z,81.24
2022-12-15T02:49:51.933Z,81.05
2022-12-15T02:50:51.917Z,81.05
2022-12-15T02:51:51.892Z,80.87
2022-12-15T02:52:51.896Z,81.34
2022-12-15T02:53:51.871Z,80.87
2022-12-15T02:54:51.884Z,81.34
2022-12-15T02:55:51.845Z,81.05
2022-12-15T02:56:51.829Z,81.24
2022-12-15T02:57:51.832Z,81.15
2022-12-15T02:58:51.815Z,81.05
2022-12-15T02:59:51.800Z,81.34
2022-12-15T03:00:51.830Z,80.77
2022-12-15T03:01:52.083Z,80.40
2022-12-15T03:02:51.907Z,80.11
2022-12-15T03:03:51.754Z,80.58
2022-12-15T03:04:51.727Z,80.58
2022-12-15T03:05:51.715Z,80.68
2022-12-15T03:06:55.957Z,80.68
2022-12-15T03:07:51.685Z,80.77
2022-12-15T03:08:51.676Z,80.77
2022-12-15T03:09:51.696Z,80.77
2022-12-15T03:10:51.649Z,80.77
2022-12-15T03:11:51.646Z,79.93
2022-12-15T03:12:51.619Z,80.11
2022-12-15T03:13:51.596Z,80.11
2022-12-15T03:14:51.581Z,80.30
2022-12-15T03:15:51.592Z,80.02
2022-12-15T03:16:51.590Z,80.21
2022-12-15T03:17:51.549Z,80.21
2022-12-15T03:18:51.534Z,80.11
2022-12-15T03:19:51.517Z,80.77
2022-12-15T03:20:51.515Z,80.68
2022-12-15T03:21:51.493Z,80.58
2022-12-15T03:22:51.479Z,80.68
2022-12-15T03:23:51.476Z,80.77
2022-12-15T03:24:51.448Z,80.87
2022-12-15T03:25:51.436Z,80.77
2022-12-15T03:26:51.417Z,80.58
2022-12-15T03:27:51.419Z,81.24
2022-12-15T03:28:51.390Z,81.24
2022-12-15T03:29:51.376Z,80.87
2022-12-15T03:30:51.378Z,80.96
2022-12-15T03:31:51.418Z,81.15
2022-12-15T03:32:51.356Z,80.77
2022-12-15T03:33:51.343Z,81.43
2022-12-15T03:34:51.320Z,81.24
2022-12-15T03:35:51.304Z,81.43
2022-12-15T03:36:51.286Z,80.96
2022-12-15T03:37:51.289Z,81.15
2022-12-15T03:38:51.260Z,81.05
2022-12-15T03:39:51.240Z,81.05
2022-12-15T03:40:51.234Z,80.96
2022-12-15T03:41:51.217Z,80.96
2022-12-15T03:42:51.214Z,81.24
2022-12-15T03:43:51.218Z,81.43
2022-12-15T03:44:51.182Z,80.87
2022-12-15T03:45:51.201Z,80.96
2022-12-15T03:46:51.144Z,80.77
2022-12-15T03:47:51.155Z,80.68
2022-12-15T03:48:51.163Z,81.05
2022-12-15T03:49:51.107Z,80.68
2022-12-15T03:50:51.101Z,80.40
2022-12-15T03:51:51.074Z,80.49
2022-12-15T03:52:51.077Z,80.68
2022-12-15T03:53:51.070Z,80.02
2022-12-15T03:54:51.071Z,80.49
2022-12-15T03:55:51.017Z,80.40
2022-12-15T03:56:51.014Z,79.83
2022-12-15T03:57:51.009Z,79.83
2022-12-15T03:58:50.984Z,80.30
2022-12-15T03:59:50.974Z,80.30
2022-12-15T04:00:50.961Z,80.58
2022-12-15T04:01:51.092Z,80.49
2022-12-15T04:02:51.127Z,80.77
2022-12-15T04:03:54.311Z,80.49
2022-12-15T04:04:50.902Z,80.68
2022-12-15T04:05:50.888Z,80.40
2022-12-15T04:06:50.890Z,80.49
2022-12-15T04:07:50.859Z,80.49
2022-12-15T04:08:50.865Z,80.30
2022-12-15T04:09:50.826Z,80.68
2022-12-15T04:10:50.813Z,80.87
2022-12-15T04:11:50.810Z,80.30
2022-12-15T04:12:50.807Z,80.21
2022-12-15T04:13:50.787Z,80.30
2022-12-15T04:14:50.776Z,80.11
2022-12-15T04:15:50.756Z,79.46
2022-12-15T04:16:50.784Z,79.60
2022-12-15T04:17:50.722Z,79.74
2022-12-15T04:18:50.707Z,79.83
2022-12-15T04:19:50.692Z,79.55
2022-12-15T04:20:50.676Z,79.64
2022-12-15T04:21:50.664Z,79.88
2022-12-15T04:22:50.655Z,80.02
2022-12-15T04:23:50.647Z,79.79
2022-12-15T04:24:50.634Z,80.07
2022-12-15T04:25:50.621Z,80.21
2022-12-15T04:26:50.633Z,80.21
2022-12-15T04:27:50.584Z,80.45
2022-12-15T04:28:50.620Z,79.83
2022-12-15T04:29:50.558Z,79.83
2022-12-15T04:30:50.586Z,79.88
2022-12-15T04:31:50.538Z,79.88
2022-12-15T04:32:50.550Z,79.69
2022-12-15T04:33:50.495Z,80.07
2022-12-15T04:34:50.488Z,79.69
2022-12-15T04:35:50.512Z,79.32
2022-12-15T04:36:50.476Z,79.13
2022-12-15T04:37:50.444Z,79.03
2022-12-15T04:38:50.853Z,78.94
2022-12-15T04:39:50.439Z,79.22
2022-12-15T04:40:50.406Z,78.56
2022-12-15T04:41:50.393Z,78.85
2022-12-15T04:42:50.416Z,78.47
2022-12-15T04:43:50.362Z,78.66
2022-12-15T04:44:50.445Z,78.47
2022-12-15T04:45:50.382Z,78.09
2022-12-15T04:46:50.317Z,78.47
2022-12-15T04:47:50.314Z,78.47
2022-12-15T04:48:50.298Z,78.47
2022-12-15T04:49:50.272Z,79.13
2022-12-15T04:50:50.265Z,79.22
2022-12-15T04:51:50.246Z,79.50
2022-12-15T04:52:50.272Z,79.79
2022-12-15T04:53:50.228Z,79.98
2022-12-15T04:54:50.244Z,79.88
2022-12-15T04:55:50.202Z,80.17
2022-12-15T04:56:50.195Z,79.60
2022-12-15T04:57:50.167Z,80.73
2022-12-15T04:58:50.150Z,80.45
2022-12-15T04:59:50.128Z,81.30
2022-12-15T05:00:50.129Z,81.68
2022-12-15T05:01:50.238Z,81.77
2022-12-15T05:02:50.130Z,81.87
2022-12-15T05:03:50.092Z,82.43
2022-12-15T05:04:50.133Z,82.43
2022-12-15T05:05:50.056Z,82.34
2022-12-15T05:06:50.042Z,82.53
2022-12-15T05:07:50.033Z,82.81
2022-12-15T05:08:50.303Z,82.62
2022-12-15T05:09:49.993Z,82.53
2022-12-15T05:10:50.000Z,82.90
2022-12-15T05:11:49.973Z,82.71
2022-12-15T05:12:49.963Z,82.53
2022-12-15T05:13:49.932Z,82.43
2022-12-15T05:14:49.917Z,82.06
2022-12-15T05:15:49.969Z,82.34
2022-12-15T05:16:49.915Z,82.81
2022-12-15T05:17:49.877Z,82.62
2022-12-15T05:18:49.862Z,82.90
2022-12-15T05:19:49.855Z,82.81
2022-12-15T05:20:50.149Z,83.09
2022-12-15T05:21:49.853Z,83.18
2022-12-15T05:22:49.825Z,83.28
2022-12-15T05:23:49.787Z,83.37
2022-12-15T05:24:49.779Z,83.18
2022-12-15T05:25:49.782Z,83.09
2022-12-15T05:26:52.964Z,83.65
2022-12-15T05:27:49.758Z,83.84
2022-12-15T05:28:49.715Z,84.41
2022-12-15T05:29:49.700Z,84.79
2022-12-15T05:30:49.766Z,85.07
2022-12-15T05:31:49.672Z,85.36
2022-12-15T05:32:49.905Z,85.26
2022-12-15T05:33:49.643Z,85.64
2022-12-15T05:34:49.645Z,86.21
2022-12-15T05:35:49.712Z,86.40
2022-12-15T05:36:49.610Z,85.64
2022-12-15T05:37:49.593Z,86.30
2022-12-15T05:38:50.382Z,86.11
2022-12-15T05:39:49.575Z,85.83
2022-12-15T05:40:49.563Z,86.30
2022-12-15T05:41:49.531Z,86.49
2022-12-15T05:42:50.052Z,86.40
2022-12-15T05:43:49.510Z,86.96
2022-12-15T05:44:49.862Z,86.68
2022-12-15T05:45:49.574Z,86.68
2022-12-15T05:46:49.532Z,86.30
2022-12-15T05:47:49.460Z,86.49
2022-12-15T05:48:49.450Z,86.30
2022-12-15T05:49:49.445Z,86.02
2022-12-15T05:50:49.678Z,85.73
2022-12-15T05:51:49.390Z,84.88
2022-12-15T05:52:49.745Z,84.98
2022-12-15T05:53:49.357Z,85.17
2022-12-15T05:54:49.388Z,85.17
2022-12-15T05:55:49.336Z,84.98
2022-12-15T05:56:50.071Z,84.79
2022-12-15T05:57:49.313Z,84.60
2022-12-15T05:58:49.291Z,84.60
2022-12-15T05:59:49.283Z,84.22
2022-12-15T06:00:49.326Z,84.03
2022-12-15T06:01:49.327Z,83.84
2022-12-15T06:02:49.910Z,83.84
2022-12-15T06:03:49.224Z,84.03
2022-12-15T06:04:49.271Z,84.22
2022-12-15T06:05:54.651Z,83.94
2022-12-15T06:06:49.186Z,83.56
2022-12-15T06:07:49.168Z,83.94
2022-12-15T06:08:49.953Z,83.56
2022-12-15T06:09:49.134Z,83.37
2022-12-15T06:10:49.160Z,82.62
2022-12-15T06:11:49.104Z,82.53
2022-12-15T06:12:49.091Z,82.53
2022-12-15T06:13:49.087Z,82.62
2022-12-15T06:14:49.982Z,82.71
2022-12-15T06:15:49.085Z,82.71
2022-12-15T06:16:50.776Z,82.90
2022-12-15T06:17:49.758Z,82.81
2022-12-15T06:18:49.912Z,82.81
2022-12-15T06:19:49.005Z,82.34
2022-12-15T06:20:49.666Z,82.15
2022-12-15T06:21:48.959Z,82.34
2022-12-15T06:22:50.168Z,81.77
2022-12-15T06:23:48.942Z,81.77
2022-12-15T06:24:48.948Z,81.30
2022-12-15T06:25:48.904Z,81.40
2022-12-15T06:26:49.735Z,81.87
2022-12-15T06:27:48.888Z,81.68
2022-12-15T06:28:48.866Z,81.68
2022-12-15T06:29:48.859Z,81.87
2022-12-15T06:30:48.860Z,81.87
2022-12-15T06:31:48.885Z,81.68
2022-12-15T06:32:49.901Z,81.68
2022-12-15T06:33:48.799Z,81.40
2022-12-15T06:34:48.803Z,82.06
2022-12-15T06:35:48.756Z,81.58
2022-12-15T06:36:48.755Z,81.40
2022-12-15T06:37:48.730Z,81.77
2022-12-15T06:38:49.838Z,81.68
2022-12-15T06:39:48.762Z,81.96
2022-12-15T06:40:48.698Z,81.77
2022-12-15T06:41:48.676Z,81.58
2022-12-15T06:42:48.662Z,81.96
2022-12-15T06:43:48.668Z,82.53
2022-12-15T06:44:48.659Z,81.87
2022-12-15T06:45:49.928Z,81.87
2022-12-15T06:46:48.697Z,81.40
2022-12-15T06:47:48.600Z,81.40
2022-12-15T06:48:48.608Z,81.68
2022-12-15T06:49:48.646Z,81.87
2022-12-15T06:50:50.359Z,81.40
2022-12-15T06:51:48.540Z,81.02
2022-12-15T06:52:48.519Z,80.73
2022-12-15T06:53:48.542Z,80.54
2022-12-15T06:54:48.513Z,80.73
2022-12-15T06:55:48.527Z,80.64
2022-12-15T06:56:49.819Z,80.45
2022-12-15T06:57:48.472Z,80.73
2022-12-15T06:58:48.446Z,80.45
2022-12-15T06:59:48.451Z,80.45
2022-12-15T07:00:48.408Z,80.17
2022-12-15T07:01:48.604Z,80.64
2022-12-15T07:02:50.323Z,80.45
2022-12-15T07:03:48.694Z,80.83
2022-12-15T07:04:48.346Z,80.73
2022-12-15T07:05:48.336Z,80.54
2022-12-15T07:06:48.337Z,80.45
2022-12-15T07:07:48.311Z,80.73
2022-12-15T07:08:48.346Z,80.36
2022-12-15T07:09:48.278Z,80.73
2022-12-15T07:10:48.258Z,80.54
2022-12-15T07:11:48.260Z,80.45
2022-12-15T07:12:48.235Z,80.73
2022-12-15T07:13:48.230Z,80.73
2022-12-15T07:14:53.201Z,80.36
2022-12-15T07:15:48.210Z,80.54
2022-12-15T07:16:48.289Z,80.36
2022-12-15T07:17:48.177Z,80.45
2022-12-15T07:18:48.158Z,80.64
2022-12-15T07:19:48.136Z,80.73
2022-12-15T07:20:49.863Z,80.26
2022-12-15T07:21:48.110Z,80.73
2022-12-15T07:22:48.090Z,80.07
2022-12-15T07:23:57.069Z,79.69
2022-12-15T07:24:48.073Z,79.79
2022-12-15T07:25:48.048Z,80.07
2022-12-15T07:26:48.921Z,79.32
2022-12-15T07:27:48.031Z,79.60
2022-12-15T07:28:47.994Z,79.03
2022-12-15T07:29:47.996Z,79.13
2022-12-15T07:30:47.976Z,79.41
2022-12-15T07:31:48.083Z,79.60
2022-12-15T07:32:50.028Z,79.88
2022-12-15T07:33:47.935Z,79.50
2022-12-15T07:34:47.913Z,80.07
2022-12-15T07:35:47.908Z,79.98
2022-12-15T07:36:52.114Z,79.79
2022-12-15T07:37:47.894Z,79.79
2022-12-15T07:38:50.732Z,79.50
2022-12-15T07:39:47.847Z,79.69
2022-12-15T07:40:47.827Z,79.50
2022-12-15T07:41:47.839Z,79.60
2022-12-15T07:42:47.804Z,79.60
2022-12-15T07:43:48.172Z,79.79
2022-12-15T07:44:49.979Z,79.79
2022-12-15T07:45:51.453Z,79.03
2022-12-15T07:46:47.802Z,79.13
2022-12-15T07:47:47.744Z,78.94
2022-12-15T07:48:50.750Z,79.03
2022-12-15T07:49:47.716Z,79.32
2022-12-15T07:50:47.704Z,79.13
2022-12-15T07:51:47.690Z,78.94
2022-12-15T07:52:47.668Z,78.75
2022-12-15T07:53:47.690Z,78.75
2022-12-15T07:54:47.634Z,78.28
2022-12-15T07:56:06.324Z,78.56
2022-12-15T07:56:50.540Z,78.47
2022-12-15T07:57:47.593Z,78.47
2022-12-15T07:58:47.580Z,78.47
2022-12-15T07:59:47.565Z,78.47
2022-12-15T08:00:49.060Z,78.47
2022-12-15T08:01:47.765Z,78.28
2022-12-15T08:02:47.713Z,78.47
2022-12-15T08:03:47.587Z,78.47
2022-12-15T08:04:48.106Z,78.66
2022-12-15T08:05:47.483Z,77.81
2022-12-15T08:06:47.471Z,77.91
2022-12-15T08:07:54.671Z,77.62
2022-12-15T08:09:51.460Z,78.00
2022-12-15T08:10:51.418Z,78.09
2022-12-15T08:12:55.427Z,78.47
2022-12-15T08:14:04.510Z,78.38
2022-12-15T08:15:59.424Z,77.81
2022-12-15T08:16:59.390Z,77.44
2022-12-15T08:18:52.221Z,77.34
2022-12-15T08:19:55.748Z,77.39
2022-12-15T08:21:56.236Z,78.15
2022-12-15T08:22:56.177Z,78.43
2022-12-15T08:25:00.176Z,78.43
2022-12-15T08:26:00.116Z,79.13
2022-12-15T08:27:53.037Z,79.56
2022-12-15T08:28:52.989Z,79.60
2022-12-15T08:29:53.163Z,79.60
2022-12-15T08:30:52.981Z,79.88
2022-12-15T08:31:53.175Z,80.07
2022-12-15T08:32:52.932Z,79.88
2022-12-15T08:33:52.921Z,79.41
2022-12-15T08:34:52.900Z,79.69
2022-12-15T08:35:57.215Z,79.41
2022-12-15T08:36:52.875Z,79.88
2022-12-15T08:37:52.882Z,79.69
2022-12-15T08:38:52.860Z,79.60
2022-12-15T08:39:52.853Z,79.69
2022-12-15T08:40:52.840Z,79.98
2022-12-15T08:41:52.826Z,79.79
2022-12-15T08:42:52.790Z,79.98
2022-12-15T08:43:52.788Z,80.07
2022-12-15T08:44:52.764Z,79.88
2022-12-15T08:45:52.813Z,79.98
2022-12-15T08:46:52.747Z,79.98
2022-12-15T08:47:52.740Z,79.60
2022-12-15T08:48:52.704Z,80.07
2022-12-15T08:49:52.702Z,80.45
2022-12-15T08:50:52.675Z,81.11
2022-12-15T08:51:52.674Z,81.68
2022-12-15T08:53:21.417Z,82.15
2022-12-15T08:53:52.653Z,81.87
2022-12-15T08:54:52.645Z,82.24
2022-12-15T08:55:52.614Z,82.10
2022-12-15T08:56:52.603Z,80.87
2022-12-15T08:57:52.595Z,79.64
2022-12-15T08:58:52.578Z,77.85
2022-12-15T08:59:52.558Z,77.19
2022-12-15T09:00:52.623Z,77.04
2022-12-15T09:01:52.705Z,76.66
2022-12-15T09:02:52.626Z,76.28
2022-12-15T09:03:52.686Z,75.15
2022-12-15T09:04:52.548Z,74.11
2022-12-15T09:05:52.494Z,73.36
2022-12-15T09:06:52.471Z,72.55
2022-12-15T09:07:52.461Z,71.88
2022-12-15T09:08:52.468Z,71.31
2022-12-15T09:09:52.452Z,70.28
2022-12-15T09:10:52.761Z,69.52
2022-12-15T09:11:52.437Z,68.95
2022-12-15T09:12:52.424Z,68.39
2022-12-15T09:13:52.416Z,68.10
2022-12-15T09:14:52.393Z,68.20
2022-12-15T09:16:09.849Z,68.20
2022-12-15T09:16:52.431Z,68.39
2022-12-15T09:17:52.358Z,68.20
2022-12-15T09:18:52.373Z,68.01
2022-12-15T09:19:52.364Z,68.29
2022-12-15T09:20:52.334Z,68.01
2022-12-15T09:21:52.325Z,67.35
2022-12-15T09:22:52.341Z,67.35
2022-12-15T09:23:52.375Z,68.26
2022-12-15T09:24:52.291Z,68.48
2022-12-15T09:25:52.312Z,68.92
2022-12-15T09:26:52.270Z,69.01
2022-12-15T09:27:52.270Z,69.96
2022-12-15T09:28:52.251Z,69.96
2022-12-15T09:29:52.247Z,70.28
2022-12-15T09:30:52.318Z,70.00
2022-12-15T09:31:52.263Z,69.62
2022-12-15T09:32:53.055Z,69.71
2022-12-15T09:33:52.228Z,69.43
2022-12-15T09:34:52.187Z,69.14
2022-12-15T09:35:52.189Z,69.43
2022-12-15T09:36:52.169Z,69.14
2022-12-15T09:37:52.173Z,69.33
2022-12-15T09:38:52.158Z,69.52
2022-12-15T09:39:52.141Z,68.86
2022-12-15T09:40:52.205Z,69.24
2022-12-15T09:41:52.116Z,68.86
2022-12-15T09:43:04.906Z,69.05
2022-12-15T09:43:52.499Z,68.86
2022-12-15T09:44:52.096Z,68.67
2022-12-15T09:45:52.139Z,68.57
2022-12-15T09:46:52.067Z,68.86
2022-12-15T09:47:52.086Z,69.71
2022-12-15T09:48:52.045Z,70.00
2022-12-15T09:49:52.042Z,69.18
2022-12-15T09:50:52.025Z,68.99
2022-12-15T09:51:52.042Z,68.33
2022-12-15T09:52:52.007Z,67.47
2022-12-15T09:53:55.177Z,66.72
2022-12-15T09:54:52.012Z,66.41
2022-12-15T09:55:51.990Z,66.22
2022-12-15T09:56:51.980Z,66.12
2022-12-15T09:57:51.969Z,66.59
2022-12-15T09:58:51.986Z,67.25
2022-12-15T09:59:51.985Z,67.91
2022-12-15T10:00:52.611Z,68.29
2022-12-15T10:01:51.990Z,68.20
2022-12-15T10:02:52.092Z,68.01
2022-12-15T10:03:52.051Z,68.95
2022-12-15T10:04:51.895Z,68.48
2022-12-15T10:06:14.714Z,68.86
2022-12-15T10:06:51.880Z,68.95
2022-12-15T10:07:51.882Z,69.14
2022-12-15T10:08:51.947Z,69.71
2022-12-15T10:09:51.854Z,70.34
2022-12-15T10:10:51.841Z,70.24
2022-12-15T10:11:51.852Z,70.43
2022-12-15T10:13:01.157Z,71.19
2022-12-15T10:13:51.820Z,71.66
2022-12-15T10:14:51.810Z,71.75
2022-12-15T10:15:51.839Z,71.94
2022-12-15T10:16:51.799Z,72.32
2022-12-15T10:17:51.817Z,72.32
2022-12-15T10:18:54.781Z,72.88
2022-12-15T10:19:51.761Z,73.64
2022-12-15T10:20:51.742Z,73.36
2022-12-15T10:21:51.735Z,73.26
2022-12-15T10:22:51.717Z,73.07
2022-12-15T10:23:51.859Z,73.36
2022-12-15T10:25:51.708Z,73.74
2022-12-15T10:26:51.685Z,73.64
2022-12-15T10:27:51.686Z,74.11
2022-12-15T10:28:51.655Z,74.30
2022-12-15T10:29:51.665Z,74.96
2022-12-15T10:30:51.679Z,75.15
2022-12-15T10:31:51.624Z,75.15
2022-12-15T10:32:51.766Z,75.05
2022-12-15T10:33:51.597Z,75.15
2022-12-15T10:34:51.652Z,75.53
2022-12-15T10:35:51.572Z,75.81
2022-12-15T10:36:51.566Z,76.38
2022-12-15T10:37:51.561Z,76.47
2022-12-15T10:38:51.546Z,77.04
2022-12-15T10:39:51.535Z,76.76
2022-12-15T10:40:51.544Z,77.51
2022-12-15T10:41:51.503Z,77.61
2022-12-15T10:42:51.510Z,77.80
2022-12-15T10:43:51.489Z,77.70
2022-12-15T10:44:51.471Z,78.27
2022-12-15T10:45:51.520Z,78.27
2022-12-15T10:46:51.453Z,77.70
2022-12-15T10:47:51.443Z,77.51
2022-12-15T10:48:51.407Z,77.61
2022-12-15T10:49:51.408Z,77.61
2022-12-15T10:50:51.404Z,77.23
2022-12-15T10:51:51.378Z,77.32
2022-12-15T10:52:51.388Z,77.42
2022-12-15T10:53:51.373Z,77.51
2022-12-15T10:54:51.366Z,77.61
2022-12-15T10:55:51.351Z,77.61
2022-12-15T10:57:01.027Z,77.80
2022-12-15T10:58:27.047Z,78.08
2022-12-15T10:58:51.324Z,78.27
2022-12-15T10:59:51.294Z,78.45
2022-12-15T11:00:51.315Z,78.55
2022-12-15T11:01:51.467Z,78.27
2022-12-15T11:02:51.344Z,78.92
2022-12-15T11:03:51.398Z,78.74
2022-12-15T11:04:51.225Z,79.21
2022-12-15T11:05:51.208Z,78.83
2022-12-15T11:06:51.198Z,78.92
2022-12-15T11:07:51.182Z,79.02
2022-12-15T11:08:51.217Z,78.64
2022-12-15T11:09:51.167Z,78.74
2022-12-15T11:10:51.158Z,78.74
2022-12-15T11:11:51.150Z,78.64
2022-12-15T11:12:51.146Z,78.92
2022-12-15T11:13:51.106Z,79.40
2022-12-15T11:14:51.437Z,79.87
2022-12-15T11:15:51.251Z,79.68
2022-12-15T11:16:51.102Z,79.49
2022-12-15T11:17:51.057Z,80.06
2022-12-15T11:18:51.047Z,79.78
2022-12-15T11:19:54.009Z,80.06
2022-12-15T11:20:51.033Z,79.97
2022-12-15T11:21:51.049Z,79.87
2022-12-15T11:22:50.989Z,80.34
2022-12-15T11:23:51.002Z,80.34
2022-12-15T11:24:50.971Z,80.25
2022-12-15T11:25:51.246Z,80.15
2022-12-15T11:26:50.969Z,80.63
2022-12-15T11:27:50.998Z,80.53
2022-12-15T11:28:50.926Z,80.63
2022-12-15T11:29:50.904Z,81.67
2022-12-15T11:30:50.956Z,81.10
2022-12-15T11:31:50.904Z,81.85
2022-12-15T11:32:50.880Z,82.14
2022-12-15T11:33:50.858Z,81.85
2022-12-15T11:34:50.862Z,81.85
2022-12-15T11:35:50.828Z,82.51
2022-12-15T11:36:50.843Z,82.42
2022-12-15T11:37:50.904Z,82.23
2022-12-15T11:38:51.008Z,82.14
2022-12-15T11:39:50.804Z,82.51
2022-12-15T11:40:50.778Z,82.23
2022-12-15T11:41:50.893Z,82.23
2022-12-15T11:42:50.813Z,81.67
2022-12-15T11:43:50.855Z,81.67
2022-12-15T11:44:50.718Z,82.42
2022-12-15T11:45:50.707Z,81.95
2022-12-15T11:46:50.705Z,82.23
2022-12-15T11:47:50.995Z,82.32
2022-12-15T11:48:50.675Z,82.23
2022-12-15T11:49:50.660Z,82.04
2022-12-15T11:50:51.058Z,81.85
2022-12-15T11:51:50.644Z,82.23
2022-12-15T11:52:50.723Z,82.23
2022-12-15T11:53:50.649Z,82.04
2022-12-15T11:54:50.622Z,81.48
2022-12-15T11:55:50.589Z,82.42
2022-12-15T11:56:50.621Z,82.14
2022-12-15T11:57:50.616Z,82.42
2022-12-15T11:58:50.567Z,82.51
2022-12-15T11:59:50.541Z,82.65
2022-12-15T12:00:50.528Z,82.37
2022-12-15T12:01:57.102Z,82.75
2022-12-15T12:02:50.567Z,82.46
2022-12-15T12:03:50.525Z,82.28
2022-12-15T12:04:50.838Z,82.37
2022-12-15T12:05:50.471Z,82.09
2022-12-15T12:06:50.442Z,82.18
2022-12-15T12:07:50.451Z,82.37
2022-12-15T12:09:50.434Z,82.18
2022-12-15T12:10:50.461Z,82.56
2022-12-15T12:11:50.439Z,82.46
2022-12-15T12:12:50.605Z,82.56
2022-12-15T12:13:50.452Z,81.90
2022-12-15T12:14:50.741Z,82.56
2022-12-15T12:15:50.357Z,82.37
2022-12-15T12:16:50.342Z,82.46
2022-12-15T12:17:50.324Z,81.99
2022-12-15T12:18:50.662Z,81.80
2022-12-15T12:19:50.782Z,82.09
2022-12-15T12:20:50.394Z,81.99
2022-12-15T12:21:51.086Z,82.09
2022-12-15T12:22:50.666Z,81.80
2022-12-15T12:23:50.249Z,81.71
2022-12-15T12:24:50.811Z,81.71
2022-12-15T12:25:50.241Z,81.90
2022-12-15T12:26:50.324Z,81.99
2022-12-15T12:27:50.284Z,81.80
2022-12-15T12:28:50.318Z,81.99
2022-12-15T12:29:50.177Z,81.80
2022-12-15T12:30:50.412Z,81.80
2022-12-15T12:31:50.835Z,81.80
2022-12-15T12:32:50.415Z,82.09
2022-12-15T12:33:50.168Z,81.90
2022-12-15T12:34:51.125Z,81.52
2022-12-15T12:35:50.116Z,82.09
2022-12-15T12:36:50.113Z,81.80
2022-12-15T12:37:50.133Z,82.18
2022-12-15T12:38:50.832Z,81.99
2022-12-15T12:39:50.056Z,81.99
2022-12-15T12:40:50.317Z,82.18
2022-12-15T12:41:50.030Z,82.28
2022-12-15T12:42:50.044Z,81.80
2022-12-15T12:43:50.348Z,82.09
2022-12-15T12:44:49.996Z,82.18
2022-12-15T12:45:50.206Z,81.90
2022-12-15T12:46:50.617Z,82.18
2022-12-15T12:47:50.014Z,81.80
2022-12-15T12:48:49.958Z,81.80
2022-12-15T12:49:50.108Z,82.09
2022-12-15T12:50:50.657Z,82.18
2022-12-15T12:51:49.919Z,81.99
2022-12-15T12:52:49.909Z,81.99
2022-12-15T12:53:50.384Z,82.09
2022-12-15T12:54:50.227Z,82.56
2022-12-15T12:55:49.925Z,82.18
2022-12-15T12:57:50.074Z,82.56
2022-12-15T12:58:49.838Z,83.03
2022-12-15T12:59:49.825Z,82.65
2022-12-15T13:00:55.204Z,82.56
2022-12-15T13:01:49.991Z,82.56
2022-12-15T13:02:50.507Z,83.22